Terminal Aerodrome Forecast
Issued by NWS Blacksburg, VA

Home | Current Version | Previous Version | Text Only | Print | Product List | Glossary On
Versions: 1 2 3 4 5 6 7 8 9 10 11 12 13 14 15 16 17 18 19 20 21 22 23 24 25 26 27 28 29 30 31 32 33 34 35 36 37 38
000
FTUS41 KRNK 221903 AAA
TAFLYH
TAF AMD
KLYH 221903Z 2219/2318 35003KT 5SM -RA BR SCT006 OVC035
      TEMPO 2219/2220 3SM -SHRA BR BKN006 OVC018
     FM222000 23007KT P6SM BKN025
      TEMPO 2220/2221 4SM -SHRA OVC007
     FM222200 27005KT P6SM BKN040
     FM230000 30004KT P6SM SCT090
     FM231100 32008KT P6SM SKC=

USA.gov is the U.S. government's official web portal to all federal, state and local government web resources and services.